Portada
METAR-TAF:

METAR-TAF

Aeroports :

Butler, Pennsilvània, Estats Units d'Amèrica

latitud: 40-47N, longitud: 079-57W, altitud: 380 m

Observació

L'informe es va fer fa 41 minuts, a les 14:56 UTC
Vent calma
Temperatura -2°C
Humitat 63%
Pressió 1029 hPa
Visibilitat: 16.1 km
Cel clar

METAR: KBTP 131456Z AUTO 00000KT 10SM CLR M02/M08 A3038 RMK AO2 SLP315 60000 T10221078 51013 FZRANO

Hora: 10:37 (15:37 UTC)


TAF: manca

Observacions i pronòstics meteorològics de més de 4000 aeroports (METAR i TAF).

Les estacions disponibles són els punts grocs i vermells al mapa.

Posi el ratolí al punt desitjat per veure el nom de l'estació.

Feu clic per veure les observacions i els pronòstics meteorològics.

Per canviar el mapa: feu clic els botons verds amb una creu de color negre per apropar; al botó verd amb un guió per allunyar la imatge; o en les fletxes verdes per a mapes adjacents.


METAR-TAF: